Questo sito utilizza i cookie per fornire la migliore esperienza di navigazione possibile. Continuando a utilizzare questo sito senza modificare le impostazioni dei cookie o cliccando su "Accetto" permetti il loro utilizzo.

Preferenzecookies

Meteo

09/12/2022TempoProb.Precip.Temp.(°C)Umidità(%)Vento(km/h)Raffiche(km/h)
13:00 Coperto - 16 75 1 20
16:00 Coperto - 16 49 14 34
19:00 Coperto 10% 16 56 14 36
22:00 Nuvoloso - 14 68 7 32
10/12/2022TempoProb.Precip.Temp.(°C)Umidità(%)Vento(km/h)Raffiche(km/h)
01:00 Molto nuvoloso - 15 68 3 20
04:00 Coperto 20% 14 73 5 14
07:00 Coperto con pioggia debole 50% 13 82 16 41
10:00 Coperto con pioggia debole 50% 14 90 11 38
13:00 Molto nuvoloso con pioggia debole 80% 13 99 12 27
16:00 Coperto con pioggia moderata 90% 14 100 18 38
19:00 Coperto con temporale 90% 13 99 22 65
22:00 Coperto con temporale 90% 14 94 29 65
11/12/2022TempoProb.Precip.Temp.(°C)Umidità(%)Vento(km/h)Raffiche(km/h)
01:00 Coperto con temporale 90% 11 98 24 65
04:00 Coperto con temporale 90% 12 97 31 74
07:00 Coperto con pioggia forte 90% 10 96 35 77
10:00 Coperto con pioggia moderata 90% 11 76 31 81
13:00 Coperto con pioggia moderata 80% 10 88 24 67
16:00 Molto nuvoloso con pioggia debole 60% 10 67 29 76
19:00 Coperto 10% 10 60 33 72
22:00 Coperto 20% 10 61 31 74
Note a riguardo

Aggiornamento pagina: 09/12/2022 09:10 UTC.

Logo Meteo Aeronautica Militare
A cura del Servizio Meteorologico dell'Aeronautica Militare

Leggi anche